createdAt,value
2019-04-07T00:00:13.336Z,5.30
2019-04-07T00:02:44.149Z,5.20
2019-04-07T00:05:15.070Z,5.10
2019-04-07T00:07:45.794Z,5.10
2019-04-07T00:10:16.356Z,5.10
2019-04-07T00:12:47.659Z,5.00
2019-04-07T00:15:18.930Z,4.90
2019-04-07T00:17:49.587Z,4.90
2019-04-07T00:20:20.149Z,4.90
2019-04-07T00:22:51.044Z,4.80
2019-04-07T00:25:22.703Z,4.80
2019-04-07T00:27:53.393Z,4.80
2019-04-07T00:30:24.009Z,4.80
2019-04-07T00:32:54.776Z,4.80
2019-04-07T00:35:30.445Z,4.80
2019-04-07T00:37:58.232Z,4.80
2019-04-07T00:40:29.455Z,4.70
2019-04-07T00:43:00.047Z,4.70
2019-04-07T00:45:30.701Z,4.70
2019-04-07T00:48:01.399Z,4.80
2019-04-07T00:50:32.666Z,4.60
2019-04-07T00:53:04.463Z,4.60
2019-04-07T00:55:35.249Z,4.70
2019-04-07T00:58:06.183Z,4.60
2019-04-07T01:00:38.797Z,4.60
2019-04-07T01:03:09.602Z,4.60
2019-04-07T01:05:43.239Z,4.50
2019-04-07T01:08:13.963Z,4.50
2019-04-07T01:10:44.797Z,4.60
2019-04-07T01:13:15.517Z,4.60
2019-04-07T01:15:46.144Z,4.50
2019-04-07T01:18:16.709Z,4.50
2019-04-07T01:20:47.336Z,4.40
2019-04-07T01:23:18.193Z,4.40
2019-04-07T01:25:50.148Z,4.60
2019-04-07T01:28:20.853Z,4.60
2019-04-07T01:30:51.695Z,4.50
2019-04-07T01:33:22.360Z,4.40
2019-04-07T01:35:53.038Z,4.40
2019-04-07T01:38:23.650Z,4.40
2019-04-07T01:41:01.189Z,4.40
2019-04-07T01:43:43.533Z,4.30
2019-04-07T01:46:20.716Z,4.20
2019-04-07T02:54:02.559Z,3.70
2019-04-07T02:56:52.350Z,3.60
2019-04-07T02:59:33.318Z,3.60
2019-04-07T03:08:08.617Z,3.40
2019-04-07T03:10:58.703Z,3.50
2019-04-07T03:13:47.443Z,3.40
2019-04-07T03:16:27.851Z,3.50
2019-04-07T03:19:17.616Z,3.40
2019-04-07T03:22:06.568Z,3.30
2019-04-07T03:24:44.532Z,3.20
2019-04-07T03:27:36.149Z,3.30
2019-04-07T03:30:24.260Z,3.30
2019-04-07T03:33:22.204Z,3.40
2019-04-07T03:36:17.998Z,3.40
2019-04-07T03:39:07.382Z,3.40
2019-04-07T03:41:57.058Z,3.40
2019-04-07T03:44:34.394Z,3.40
2019-04-07T03:47:18.414Z,3.30
2019-04-07T03:50:08.970Z,3.30
2019-04-07T03:52:56.376Z,3.30
2019-04-07T03:55:40.737Z,3.20
2019-04-07T03:58:29.848Z,3.20
2019-04-07T04:01:23.984Z,3.20
2019-04-07T04:04:07.487Z,3.20
2019-04-07T04:06:56.740Z,3.20
2019-04-07T04:09:51.802Z,3.10
2019-04-07T04:12:32.473Z,3.20
2019-04-07T04:15:08.836Z,3.10
2019-04-07T04:17:39.619Z,3.10
2019-04-07T04:20:10.664Z,3.00
2019-04-07T04:22:41.347Z,3.00
2019-04-07T04:25:12.628Z,3.00
2019-04-07T04:27:44.209Z,2.90
2019-04-07T04:30:15.169Z,2.80
2019-04-07T04:32:46.408Z,2.90
2019-04-07T04:35:17.211Z,2.90
2019-04-07T04:37:51.657Z,2.90
2019-04-07T04:40:20.667Z,2.90
2019-04-07T04:42:52.085Z,2.90
2019-04-07T04:45:22.730Z,2.90
2019-04-07T04:47:53.741Z,2.90
2019-04-07T04:50:25.714Z,3.00
2019-04-07T04:52:56.563Z,3.00
2019-04-07T04:55:27.474Z,3.10
2019-04-07T04:57:58.165Z,3.10
2019-04-07T05:00:28.940Z,3.20
2019-04-07T05:03:00.971Z,3.20
2019-04-07T05:05:31.640Z,3.20
2019-04-07T05:08:04.464Z,3.20
2019-04-07T05:10:34.842Z,3.30
2019-04-07T05:13:07.526Z,3.30
2019-04-07T05:15:38.984Z,3.40
2019-04-07T05:18:09.817Z,3.40
2019-04-07T05:20:40.853Z,3.50
2019-04-07T05:23:11.538Z,3.50
2019-04-07T05:25:42.784Z,3.60
2019-04-07T05:28:13.940Z,3.60
2019-04-07T05:30:46.029Z,3.70
2019-04-07T05:33:16.646Z,3.80
2019-04-07T05:35:48.402Z,4.00
2019-04-07T05:38:19.135Z,3.90
2019-04-07T05:40:50.099Z,4.00
2019-04-07T05:43:20.749Z,4.10
2019-04-07T05:45:51.532Z,4.20
2019-04-07T05:48:22.760Z,4.30
2019-04-07T05:50:53.842Z,4.40
2019-04-07T05:53:24.494Z,4.60
2019-04-07T05:55:55.566Z,4.70
2019-04-07T05:58:26.961Z,4.80
2019-04-07T06:00:57.679Z,4.80
2019-04-07T06:03:28.436Z,4.90
2019-04-07T06:05:59.362Z,4.90
2019-04-07T06:08:36.021Z,5.60
2019-04-07T06:11:02.497Z,5.70
2019-04-07T06:13:33.138Z,6.30
2019-04-07T06:16:04.219Z,7.10
2019-04-07T06:18:35.735Z,6.90
2019-04-07T06:21:07.669Z,6.30
2019-04-07T06:23:38.661Z,6.20
2019-04-07T06:26:11.695Z,6.00
2019-04-07T06:28:41.964Z,6.00
2019-04-07T06:31:12.863Z,6.10
2019-04-07T06:33:43.445Z,6.10
2019-04-07T06:36:17.519Z,6.30
2019-04-07T06:38:51.436Z,6.50
2019-04-07T06:41:19.082Z,6.50
2019-04-07T06:43:49.744Z,6.70
2019-04-07T06:46:38.068Z,6.90
2019-04-07T06:49:15.429Z,7.00
2019-04-07T06:52:10.470Z,7.20
2019-04-07T06:54:58.928Z,7.60
2019-04-07T06:57:49.134Z,7.50
2019-04-07T07:00:39.700Z,8.00
2019-04-07T07:03:19.353Z,8.20
2019-04-07T07:06:05.675Z,8.50
2019-04-07T07:09:00.741Z,8.50
2019-04-07T07:12:05.032Z,8.90
2019-04-07T07:15:04.559Z,8.90
2019-04-07T07:17:47.812Z,8.30
2019-04-07T07:20:36.183Z,9.10
2019-04-07T07:23:13.339Z,9.40
2019-04-07T07:25:42.850Z,9.40
2019-04-07T07:28:13.632Z,10.00
2019-04-07T07:30:50.382Z,10.20
2019-04-07T07:33:19.052Z,10.60
2019-04-07T07:35:49.697Z,10.50
2019-04-07T07:38:20.423Z,11.30
2019-04-07T07:40:51.511Z,11.50
2019-04-07T07:43:22.704Z,11.20
2019-04-07T07:45:53.382Z,11.20
2019-04-07T07:48:27.107Z,10.80
2019-04-07T07:50:56.429Z,11.00
2019-04-07T07:53:28.585Z,10.90
2019-04-07T07:56:00.938Z,11.50
2019-04-07T07:58:33.365Z,11.80
2019-04-07T08:01:05.334Z,11.60
2019-04-07T08:03:36.284Z,12.50
2019-04-07T08:06:08.393Z,12.70
2019-04-07T08:08:39.636Z,12.40
2019-04-07T08:11:11.096Z,12.60
2019-04-07T08:13:44.560Z,13.00
2019-04-07T08:16:14.225Z,13.00
2019-04-07T08:18:46.448Z,13.60
2019-04-07T08:21:19.915Z,13.30
2019-04-07T08:23:49.743Z,13.90
2019-04-07T08:26:24.147Z,14.70
2019-04-07T08:28:53.366Z,14.70
2019-04-07T08:31:25.079Z,15.30
2019-04-07T08:33:55.943Z,15.60
2019-04-07T08:36:27.608Z,15.80
2019-04-07T08:38:58.470Z,15.80
2019-04-07T08:41:29.365Z,15.20
2019-04-07T08:44:00.079Z,16.90
2019-04-07T08:46:35.272Z,16.30
2019-04-07T08:49:04.379Z,17.30
2019-04-07T08:51:35.230Z,18.00
2019-04-07T08:54:06.000Z,18.10
2019-04-07T08:56:36.715Z,17.70
2019-04-07T08:59:10.007Z,17.50
2019-04-07T09:01:40.455Z,16.50
2019-04-07T09:04:14.829Z,16.20
2019-04-07T09:06:43.842Z,15.50
2019-04-07T09:09:15.599Z,15.20
2019-04-07T09:11:47.018Z,14.80
2019-04-07T09:14:18.439Z,14.50
2019-04-07T09:17:30.966Z,14.60
2019-04-07T09:20:23.797Z,14.10
2019-04-07T09:23:03.576Z,14.70
2019-04-07T09:25:53.227Z,15.80
2019-04-07T09:28:31.483Z,15.80
2019-04-07T09:31:30.389Z,16.20
2019-04-07T09:34:13.572Z,15.80
2019-04-07T09:37:03.365Z,15.50
2019-04-07T09:39:57.846Z,16.20
2019-04-07T09:42:47.715Z,16.00
2019-04-07T09:45:29.671Z,16.50
2019-04-07T09:48:26.718Z,16.50
2019-04-07T09:51:07.301Z,17.20
2019-04-07T09:53:50.743Z,17.60
2019-04-07T09:56:32.464Z,17.70
2019-04-07T09:59:28.491Z,17.60
2019-04-07T10:02:18.520Z,17.30
2019-04-07T10:05:06.818Z,17.70
2019-04-07T10:07:56.773Z,17.80
2019-04-07T10:10:45.046Z,17.80
2019-04-07T10:13:40.953Z,18.00
2019-04-07T10:16:21.087Z,18.20
2019-04-07T10:19:04.931Z,19.30
2019-04-07T10:21:53.584Z,20.00
2019-04-07T10:24:42.335Z,19.20
2019-04-07T10:27:27.460Z,20.30
2019-04-07T10:30:16.023Z,20.60
2019-04-07T10:33:21.509Z,21.30
2019-04-07T10:36:17.567Z,21.30
2019-04-07T10:38:57.693Z,21.60
2019-04-07T10:41:47.531Z,21.70
2019-04-07T10:44:27.826Z,20.80
2019-04-07T10:47:17.113Z,20.80
2019-04-07T10:50:00.662Z,21.60
2019-04-07T10:53:00.238Z,21.50
2019-04-07T10:55:40.612Z,20.30
2019-04-07T10:58:31.206Z,20.20
2019-04-07T11:01:27.089Z,21.10
2019-04-07T11:04:29.436Z,22.20
2019-04-07T11:07:17.434Z,19.30
2019-04-07T11:10:04.835Z,20.90
2019-04-07T11:13:00.723Z,18.80
2019-04-07T11:16:09.271Z,21.10
2019-04-07T11:18:56.558Z,21.30
2019-04-07T11:21:46.760Z,21.70
2019-04-07T11:24:37.127Z,22.00
2019-04-07T11:27:27.697Z,22.00
2019-04-07T11:30:23.310Z,22.30
2019-04-07T11:33:12.603Z,22.00
2019-04-07T11:35:53.715Z,20.80
2019-04-07T11:38:49.510Z,20.60
2019-04-07T11:41:37.797Z,21.40
2019-04-07T11:44:20.329Z,21.20
2019-04-07T11:47:16.390Z,20.80
2019-04-07T11:49:55.490Z,19.70
2019-04-07T11:52:35.329Z,19.70
2019-04-07T11:55:17.307Z,20.00
2019-04-07T11:58:12.287Z,19.80
2019-04-07T12:01:04.740Z,19.20
2019-04-07T12:03:57.234Z,19.10
2019-04-07T12:06:35.312Z,18.90
2019-04-07T12:09:23.866Z,19.00
2019-04-07T12:12:05.909Z,19.10
2019-04-07T12:14:56.579Z,18.60
2019-04-07T12:17:59.098Z,18.70
2019-04-07T12:20:36.185Z,18.00
2019-04-07T12:23:23.398Z,18.10
2019-04-07T12:26:07.425Z,19.00
2019-04-07T12:29:03.473Z,19.00
2019-04-07T12:32:00.716Z,18.70
2019-04-07T12:34:43.999Z,18.50
2019-04-07T12:37:31.774Z,19.00
2019-04-07T12:40:24.646Z,19.30
2019-04-07T12:43:17.559Z,19.30
2019-04-07T12:46:11.159Z,19.30
2019-04-07T12:49:05.112Z,19.40
2019-04-07T12:51:47.256Z,19.40
2019-04-07T12:54:26.745Z,19.10
2019-04-07T12:57:28.835Z,18.70
2019-04-07T13:00:27.670Z,18.70
2019-04-07T13:03:04.792Z,18.50
2019-04-07T13:05:53.190Z,18.80
2019-04-07T13:08:41.392Z,18.80
2019-04-07T13:11:35.436Z,18.80
2019-04-07T13:14:16.125Z,18.80
2019-04-07T13:17:08.743Z,18.80
2019-04-07T13:19:47.695Z,18.40
2019-04-07T13:22:35.464Z,18.50
2019-04-07T13:25:25.509Z,18.60
2019-04-07T13:28:24.657Z,18.60
2019-04-07T13:31:09.136Z,18.70
2019-04-07T13:33:51.122Z,18.60
2019-04-07T13:36:32.120Z,18.60
2019-04-07T13:39:27.604Z,18.40
2019-04-07T13:42:13.252Z,18.10
2019-04-07T13:45:14.244Z,18.10
2019-04-07T13:47:53.621Z,18.20
2019-04-07T13:50:49.497Z,17.90
2019-04-07T13:53:52.270Z,17.80
2019-04-07T13:56:50.984Z,17.70
2019-04-07T13:59:39.970Z,17.50
2019-04-07T14:02:35.945Z,17.30
2019-04-07T14:05:27.010Z,17.50
2019-04-07T14:08:16.038Z,17.40
2019-04-07T14:10:58.214Z,17.50
2019-04-07T14:13:56.545Z,17.30
2019-04-07T14:16:37.708Z,17.30
2019-04-07T14:19:27.712Z,17.30
2019-04-07T14:22:13.055Z,17.30
2019-04-07T14:25:02.723Z,17.20
2019-04-07T14:27:51.269Z,17.10
2019-04-07T14:30:45.929Z,17.20
2019-04-07T14:33:42.464Z,17.10
2019-04-07T14:36:21.897Z,17.00
2019-04-07T14:39:20.625Z,17.00
2019-04-07T14:42:07.338Z,16.80
2019-04-07T14:44:56.719Z,16.70
2019-04-07T14:47:46.401Z,16.70
2019-04-07T14:50:45.105Z,16.70
2019-04-07T14:53:30.271Z,16.60
2019-04-07T14:56:08.074Z,16.50
2019-04-07T14:58:53.379Z,16.50
2019-04-07T15:01:41.213Z,16.70
2019-04-07T15:04:12.890Z,16.60
2019-04-07T15:06:44.914Z,16.60
2019-04-07T15:09:31.617Z,16.60
2019-04-07T15:12:21.752Z,16.50
2019-04-07T15:14:49.631Z,16.40
2019-04-07T15:17:20.987Z,16.30
2019-04-07T15:19:52.446Z,16.40
2019-04-07T15:22:28.740Z,16.40
2019-04-07T15:24:56.014Z,16.60
2019-04-07T15:27:27.257Z,16.50
2019-04-07T15:29:58.821Z,16.60
2019-04-07T15:32:30.152Z,16.60
2019-04-07T15:35:02.319Z,16.60
2019-04-07T15:37:33.609Z,16.60
2019-04-07T15:40:07.254Z,16.60
2019-04-07T15:42:44.185Z,16.50
2019-04-07T15:45:13.438Z,16.50
2019-04-07T15:47:44.562Z,16.40
2019-04-07T15:50:16.005Z,16.40
2019-04-07T15:52:47.339Z,16.40
2019-04-07T15:55:18.858Z,16.30
2019-04-07T15:57:54.297Z,16.30
2019-04-07T16:00:21.769Z,16.30
2019-04-07T16:02:53.585Z,16.20
2019-04-07T16:05:24.893Z,16.10
2019-04-07T16:07:56.231Z,16.10
2019-04-07T16:10:26.976Z,16.10
2019-04-07T16:12:59.350Z,16.10
2019-04-07T16:15:30.780Z,16.00
2019-04-07T16:18:03.453Z,15.90
2019-04-07T16:20:37.977Z,15.90
2019-04-07T16:23:06.989Z,15.90
2019-04-07T16:25:39.548Z,15.90
2019-04-07T16:28:12.830Z,15.90
2019-04-07T16:30:42.827Z,15.80
2019-04-07T16:33:14.098Z,15.80
2019-04-07T16:35:51.080Z,15.70
2019-04-07T16:38:18.174Z,15.70
2019-04-07T16:40:49.055Z,15.60
2019-04-07T16:45:50.700Z,15.60
2019-04-07T16:48:21.407Z,15.60
2019-04-07T16:50:55.188Z,15.60
2019-04-07T16:55:55.926Z,15.50
2019-04-07T16:58:26.629Z,15.40
2019-04-07T17:00:58.978Z,15.40
2019-04-07T17:03:29.745Z,15.40
2019-04-07T17:06:01.643Z,15.30
2019-04-07T17:08:33.759Z,15.30
2019-04-07T17:11:07.710Z,15.20
2019-04-07T17:13:41.294Z,15.20
2019-04-07T17:16:11.612Z,15.10
2019-04-07T17:18:43.267Z,15.10
2019-04-07T17:21:18.403Z,15.00
2019-04-07T17:23:53.288Z,15.00
2019-04-07T17:26:23.767Z,15.00
2019-04-07T17:28:56.748Z,14.90
2019-04-07T17:31:27.999Z,14.90
2019-04-07T17:33:58.848Z,14.80
2019-04-07T17:36:29.549Z,14.70
2019-04-07T17:39:20.554Z,14.70
2019-04-07T17:41:52.022Z,14.70
2019-04-07T17:44:32.468Z,14.70
2019-04-07T17:47:36.627Z,14.60
2019-04-07T17:50:34.151Z,14.60
2019-04-07T17:53:29.973Z,14.50
2019-04-07T17:56:22.239Z,14.40
2019-04-07T17:59:18.193Z,14.40
2019-04-07T18:02:02.377Z,14.40
2019-04-07T18:04:55.273Z,14.40
2019-04-07T18:07:39.710Z,14.30
2019-04-07T18:10:29.383Z,14.30
2019-04-07T18:13:22.680Z,14.20
2019-04-07T18:16:06.263Z,14.30
2019-04-07T18:19:15.204Z,14.30
2019-04-07T18:22:06.732Z,14.40
2019-04-07T18:25:02.111Z,14.30
2019-04-07T18:27:47.472Z,14.20
2019-04-07T18:30:35.759Z,14.10
2019-04-07T18:36:40.586Z,14.00
2019-04-07T18:39:30.317Z,13.80
2019-04-07T18:42:24.853Z,13.70
2019-04-07T18:45:23.510Z,13.60
2019-04-07T18:48:04.530Z,13.60
2019-04-07T18:50:54.273Z,13.70
2019-04-07T18:56:22.915Z,13.70
2019-04-07T18:59:07.524Z,13.60
2019-04-07T19:01:49.476Z,13.70
2019-04-07T19:04:34.903Z,13.60
2019-04-07T19:07:15.189Z,13.50
2019-04-07T19:10:09.620Z,13.40
2019-04-07T19:12:41.266Z,13.30
2019-04-07T19:15:31.052Z,13.30
2019-04-07T19:18:32.867Z,13.20
2019-04-07T19:21:28.782Z,13.20
2019-04-07T19:24:21.293Z,13.30
2019-04-07T19:27:18.177Z,13.30
2019-04-07T19:30:06.083Z,13.40
2019-04-07T19:32:54.283Z,13.40
2019-04-07T19:35:46.365Z,13.40
2019-04-07T19:38:42.141Z,13.30
2019-04-07T19:41:33.563Z,13.20
2019-04-07T19:44:37.186Z,13.10
2019-04-07T19:47:34.491Z,12.90
2019-04-07T19:53:15.502Z,12.80
2019-04-07T19:56:20.934Z,12.60
2019-04-07T19:59:08.235Z,12.60
2019-04-07T20:01:59.053Z,12.50
2019-04-07T20:04:57.360Z,12.50
2019-04-07T20:08:02.944Z,12.60
2019-04-07T20:10:42.957Z,12.50
2019-04-07T20:13:40.848Z,12.40
2019-04-07T20:22:26.233Z,12.50
2019-04-07T20:25:20.842Z,12.50
2019-04-07T20:28:15.339Z,12.40
2019-04-07T20:31:10.927Z,12.50
2019-04-07T20:34:04.595Z,12.40
2019-04-07T20:36:55.081Z,12.30
2019-04-07T20:39:51.159Z,12.30
2019-04-07T20:42:47.520Z,12.30
2019-04-07T20:45:34.198Z,12.30
2019-04-07T20:55:08.408Z,12.10
2019-04-07T21:01:31.105Z,12.10
2019-04-07T21:04:19.875Z,12.00
2019-04-07T21:07:13.906Z,12.00
2019-04-07T21:10:06.541Z,12.00
2019-04-07T21:12:54.746Z,11.90
2019-04-07T21:15:33.651Z,11.90
2019-04-07T21:18:31.349Z,11.90
2019-04-07T21:21:27.159Z,11.90
2019-04-07T21:24:20.092Z,11.70
2019-04-07T21:27:10.686Z,11.70
2019-04-07T21:30:09.366Z,11.60
2019-04-07T21:32:56.827Z,11.60
2019-04-07T21:35:38.356Z,11.60
2019-04-07T21:38:21.823Z,11.60
2019-04-07T21:40:58.131Z,11.50
2019-04-07T21:43:50.911Z,11.50
2019-04-07T21:46:36.732Z,11.50
2019-04-07T21:49:32.661Z,11.50
2019-04-07T21:52:26.065Z,11.50
2019-04-07T21:55:14.853Z,11.50
2019-04-07T21:58:23.135Z,11.40
2019-04-07T22:01:06.786Z,11.40
2019-04-07T22:03:59.580Z,11.30
2019-04-07T22:06:48.738Z,11.30
2019-04-07T22:09:32.515Z,11.30
2019-04-07T22:12:03.336Z,11.20
2019-04-07T22:14:37.474Z,11.20
2019-04-07T22:17:06.252Z,11.30
2019-04-07T22:19:36.828Z,11.30
2019-04-07T22:22:07.583Z,11.40
2019-04-07T22:24:39.496Z,11.10
2019-04-07T22:27:11.197Z,11.00
2019-04-07T22:29:42.735Z,11.00
2019-04-07T22:32:17.540Z,10.90
2019-04-07T22:34:47.050Z,10.90
2019-04-07T22:37:19.566Z,10.80
2019-04-07T22:39:49.869Z,10.70
2019-04-07T22:42:20.442Z,10.70
2019-04-07T22:44:53.809Z,10.60
2019-04-07T22:47:23.638Z,10.60
2019-04-07T22:49:54.426Z,10.70
2019-04-07T22:52:25.065Z,10.70
2019-04-07T22:54:56.202Z,10.80
2019-04-07T22:57:27.144Z,10.80
2019-04-07T22:59:58.734Z,10.80
2019-04-07T23:02:29.738Z,10.80
2019-04-07T23:05:01.575Z,10.70
2019-04-07T23:07:32.400Z,10.70
2019-04-07T23:10:03.376Z,10.70
2019-04-07T23:12:34.135Z,10.80
2019-04-07T23:15:05.666Z,10.80
2019-04-07T23:17:36.483Z,10.80
2019-04-07T23:20:07.354Z,10.90
2019-04-07T23:22:38.296Z,10.80
2019-04-07T23:25:09.896Z,10.90
2019-04-07T23:27:41.537Z,10.90
2019-04-07T23:30:12.869Z,10.90
2019-04-07T23:32:43.769Z,10.90
2019-04-07T23:35:14.566Z,10.80
2019-04-07T23:37:45.295Z,10.80
2019-04-07T23:40:16.289Z,10.80
2019-04-07T23:42:48.776Z,10.80
2019-04-07T23:45:20.509Z,10.80
2019-04-07T23:47:51.080Z,10.80
2019-04-07T23:50:23.037Z,10.80
2019-04-07T23:52:53.958Z,10.80
2019-04-07T23:55:24.703Z,10.80
2019-04-07T23:57:56.144Z,10.80
